Terminal Aerodrome Forecast
Issued by NWS Sioux Falls, SD

Home | Current Version | Previous Version | Text Only | Print | Product List | Glossary On
Versions: 1 2 3 4 5 6 7 8 9 10 11 12 13 14
543
FTUS43 KFSD 200225 AAA
TAFHON
TAF AMD
KHON 200225Z 2002/2024 24016G25KT 4SM TSRA OVC040CB
      TEMPO 2002/2003 1SM +TSRA BKN020CB
     FM200400 31014G18KT P6SM BKN060
     FM200700 28007KT P6SM SCT150
     FM201800 23010KT P6SM SKC=

USA.gov is the U.S. government's official web portal to all federal, state and local government web resources and services.